Airport ICAO


11:57 UTC

26°C

Clear skies


An affordable passengers' Moving Map for your aircraft. Made for the iPad and the iPhone
More information here

EGLF Farnborough


London UNITED KINGDOM   VFR CAVOK


METAR EGLF 191150Z VRB05KT CAVOK 26/10 Q1023 0h07min

TAF EGLF 191048Z 1912/1921 14005KT CAVOK 1h09min





NOTAMS

OPEN